sensor_id;sensor_type;location;lat;lon;timestamp;pressure;altitude;pressure_sealevel;temperature;humidity
48926;BME280;39838;59.938;30.642;2023-07-31T00:00:30;99873.28;;;17.53;71.72
48926;BME280;39838;59.938;30.642;2023-07-31T00:02:57;99876.03;;;17.50;71.81
48926;BME280;39838;59.938;30.642;2023-07-31T00:05:24;99876.13;;;17.47;71.92
48926;BME280;39838;59.938;30.642;2023-07-31T00:07:51;99880.66;;;17.43;72.25
48926;BME280;39838;59.938;30.642;2023-07-31T00:10:19;99883.38;;;17.40;72.36
48926;BME280;39838;59.938;30.642;2023-07-31T00:12:48;99881.75;;;17.38;72.58
48926;BME280;39838;59.938;30.642;2023-07-31T00:15:15;99884.50;;;17.35;72.79
48926;BME280;39838;59.938;30.642;2023-07-31T00:17:42;99887.22;;;17.32;73.04
48926;BME280;39838;59.938;30.642;2023-07-31T00:20:10;99882.88;;;17.31;73.38
48926;BME280;39838;59.938;30.642;2023-07-31T00:22:37;99882.13;;;17.27;73.17
48926;BME280;39838;59.938;30.642;2023-07-31T00:25:05;99888.38;;;17.25;73.37
48926;BME280;39838;59.938;30.642;2023-07-31T00:27:32;99881.47;;;17.22;73.48
48926;BME280;39838;59.938;30.642;2023-07-31T00:30:01;99890.25;;;17.21;73.68
48926;BME280;39838;59.938;30.642;2023-07-31T00:32:31;99894.66;;;17.21;73.73
48926;BME280;39838;59.938;30.642;2023-07-31T00:34:58;99895.59;;;17.18;73.87
48926;BME280;39838;59.938;30.642;2023-07-31T00:37:25;99899.16;;;17.17;74.24
48926;BME280;39838;59.938;30.642;2023-07-31T00:39:52;99901.78;;;17.17;74.32
48926;BME280;39838;59.938;30.642;2023-07-31T00:42:19;99899.28;;;17.14;74.59
48926;BME280;39838;59.938;30.642;2023-07-31T00:44:46;99907.09;;;17.15;74.72
48926;BME280;39838;59.938;30.642;2023-07-31T00:47:15;99905.38;;;17.14;74.94
48926;BME280;39838;59.938;30.642;2023-07-31T00:49:42;99908.03;;;17.13;75.32
48926;BME280;39838;59.938;30.642;2023-07-31T00:52:10;99904.63;;;17.11;75.35
48926;BME280;39838;59.938;30.642;2023-07-31T00:54:37;99915.25;;;17.08;75.96
48926;BME280;39838;59.938;30.642;2023-07-31T00:57:05;99914.41;;;17.06;76.02
48926;BME280;39838;59.938;30.642;2023-07-31T00:59:33;99903.97;;;17.04;76.25
48926;BME280;39838;59.938;30.642;2023-07-31T01:02:01;99911.06;;;17.02;75.81
48926;BME280;39838;59.938;30.642;2023-07-31T01:04:30;99905.88;;;17.01;76.37
48926;BME280;39838;59.938;30.642;2023-07-31T01:07:04;99905.91;;;16.99;76.53
48926;BME280;39838;59.938;30.642;2023-07-31T01:09:37;99885.53;;;16.82;76.56
48926;BME280;39838;59.938;30.642;2023-07-31T01:12:07;99912.13;;;16.97;76.58
48926;BME280;39838;59.938;30.642;2023-07-31T01:14:36;99906.88;;;16.97;76.74
48926;BME280;39838;59.938;30.642;2023-07-31T01:17:04;99900.88;;;16.93;76.77
48926;BME280;39838;59.938;30.642;2023-07-31T01:19:32;99915.53;;;16.99;76.97
48926;BME280;39838;59.938;30.642;2023-07-31T01:22:27;99910.31;;;16.99;76.76
48926;BME280;39838;59.938;30.642;2023-07-31T01:25:08;99893.63;;;17.00;76.70
48926;BME280;39838;59.938;30.642;2023-07-31T01:27:44;99898.00;;;17.01;76.88
48926;BME280;39838;59.938;30.642;2023-07-31T01:30:16;99889.22;;;17.02;76.84
48926;BME280;39838;59.938;30.642;2023-07-31T01:32:47;99892.69;;;17.02;77.05
48926;BME280;39838;59.938;30.642;2023-07-31T01:35:15;99890.78;;;17.06;76.89
48926;BME280;39838;59.938;30.642;2023-07-31T01:37:42;99889.00;;;17.08;77.00
48926;BME280;39838;59.938;30.642;2023-07-31T01:40:09;99894.19;;;17.09;76.99
48926;BME280;39838;59.938;30.642;2023-07-31T01:42:37;99889.72;;;17.11;76.87
48926;BME280;39838;59.938;30.642;2023-07-31T01:45:06;99890.56;;;17.12;76.58
48926;BME280;39838;59.938;30.642;2023-07-31T01:47:34;99882.63;;;17.13;76.53
48926;BME280;39838;59.938;30.642;2023-07-31T01:50:01;99882.53;;;17.16;76.60
48926;BME280;39838;59.938;30.642;2023-07-31T01:52:30;99889.44;;;17.19;76.42
48926;BME280;39838;59.938;30.642;2023-07-31T01:54:57;99896.31;;;17.23;76.41
48926;BME280;39838;59.938;30.642;2023-07-31T01:57:24;99903.25;;;17.24;75.81
48926;BME280;39838;59.938;30.642;2023-07-31T01:59:51;99899.66;;;17.27;75.48
48926;BME280;39838;59.938;30.642;2023-07-31T02:02:21;99891.75;;;17.28;75.48
48926;BME280;39838;59.938;30.642;2023-07-31T02:04:49;99895.84;;;17.35;75.39
48926;BME280;39838;59.938;30.642;2023-07-31T02:07:16;99903.59;;;17.38;74.99
48926;BME280;39838;59.938;30.642;2023-07-31T02:09:43;99900.91;;;17.40;74.73
48926;BME280;39838;59.938;30.642;2023-07-31T02:12:12;99895.50;;;17.44;74.75
48926;BME280;39838;59.938;30.642;2023-07-31T02:14:40;99896.28;;;17.46;74.51
48926;BME280;39838;59.938;30.642;2023-07-31T02:17:07;99890.09;;;17.49;74.32
48926;BME280;39838;59.938;30.642;2023-07-31T02:19:55;99894.34;;;17.52;74.21
48926;BME280;39838;59.938;30.642;2023-07-31T02:22:22;99889.00;;;17.55;74.00
48926;BME280;39838;59.938;30.642;2023-07-31T02:24:50;99891.50;;;17.58;73.75
48926;BME280;39838;59.938;30.642;2023-07-31T02:27:17;99880.00;;;17.60;73.18
48926;BME280;39838;59.938;30.642;2023-07-31T02:29:44;99885.03;;;17.66;72.37
48926;BME280;39838;59.938;30.642;2023-07-31T02:32:11;99873.50;;;17.70;71.85
48926;BME280;39838;59.938;30.642;2023-07-31T02:34:39;99879.47;;;17.76;71.51
48926;BME280;39838;59.938;30.642;2023-07-31T02:37:07;99875.72;;;17.81;71.07
48926;BME280;39838;59.938;30.642;2023-07-31T02:39:34;99883.34;;;17.87;70.85
48926;BME280;39838;59.938;30.642;2023-07-31T02:42:02;99877.78;;;17.95;70.26
48926;BME280;39838;59.938;30.642;2023-07-31T02:44:29;99882.75;;;18.03;69.64
48926;BME280;39838;59.938;30.642;2023-07-31T02:46:56;99872.91;;;18.08;69.07
48926;BME280;39838;59.938;30.642;2023-07-31T02:49:23;99871.88;;;18.12;68.78
48926;BME280;39838;59.938;30.642;2023-07-31T02:51:50;99870.50;;;18.23;68.92
48926;BME280;39838;59.938;30.642;2023-07-31T02:54:19;99871.75;;;18.35;68.19
48926;BME280;39838;59.938;30.642;2023-07-31T02:56:47;99864.28;;;18.46;67.45
48926;BME280;39838;59.938;30.642;2023-07-31T02:59:14;99866.66;;;18.52;67.44
48926;BME280;39838;59.938;30.642;2023-07-31T03:01:42;99867.72;;;18.69;65.82
48926;BME280;39838;59.938;30.642;2023-07-31T03:04:09;99869.03;;;18.79;65.86
48926;BME280;39838;59.938;30.642;2023-07-31T03:06:36;99867.69;;;18.89;65.10
48926;BME280;39838;59.938;30.642;2023-07-31T03:09:03;99868.81;;;19.04;64.74
48926;BME280;39838;59.938;30.642;2023-07-31T03:11:32;99869.34;;;19.12;63.82
48926;BME280;39838;59.938;30.642;2023-07-31T03:14:00;99862.59;;;19.25;62.90
48926;BME280;39838;59.938;30.642;2023-07-31T03:16:27;99858.38;;;19.40;61.70
48926;BME280;39838;59.938;30.642;2023-07-31T03:18:54;99853.25;;;19.56;61.92
48926;BME280;39838;59.938;30.642;2023-07-31T03:21:21;99855.13;;;19.73;60.47
48926;BME280;39838;59.938;30.642;2023-07-31T03:23:48;99854.53;;;19.85;59.95
48926;BME280;39838;59.938;30.642;2023-07-31T03:26:15;99853.91;;;19.97;59.24
48926;BME280;39838;59.938;30.642;2023-07-31T03:28:44;99859.69;;;20.05;58.97
48926;BME280;39838;59.938;30.642;2023-07-31T03:31:11;99858.47;;;20.12;58.05
48926;BME280;39838;59.938;30.642;2023-07-31T03:33:39;99854.63;;;20.18;57.68
48926;BME280;39838;59.938;30.642;2023-07-31T03:36:06;99862.97;;;20.28;57.91
48926;BME280;39838;59.938;30.642;2023-07-31T03:38:33;99861.56;;;20.38;56.98
48926;BME280;39838;59.938;30.642;2023-07-31T03:41:01;99863.00;;;20.45;57.18
48926;BME280;39838;59.938;30.642;2023-07-31T03:43:28;99865.50;;;20.48;56.92
48926;BME280;39838;59.938;30.642;2023-07-31T03:45:57;99860.97;;;20.50;57.08
48926;BME280;39838;59.938;30.642;2023-07-31T03:48:24;99863.31;;;20.56;56.83
48926;BME280;39838;59.938;30.642;2023-07-31T03:50:51;99857.72;;;20.62;56.41
48926;BME280;39838;59.938;30.642;2023-07-31T03:53:18;99855.38;;;20.74;56.83
48926;BME280;39838;59.938;30.642;2023-07-31T03:55:45;99860.09;;;20.84;56.29
48926;BME280;39838;59.938;30.642;2023-07-31T03:58:13;99860.28;;;20.97;56.28
48926;BME280;39838;59.938;30.642;2023-07-31T04:00:40;99862.44;;;21.06;55.85
48926;BME280;39838;59.938;30.642;2023-07-31T04:03:09;99855.97;;;21.12;55.61
48926;BME280;39838;59.938;30.642;2023-07-31T04:05:38;99860.09;;;21.17;55.40
48926;BME280;39838;59.938;30.642;2023-07-31T04:08:05;99852.47;;;21.29;55.43
48926;BME280;39838;59.938;30.642;2023-07-31T04:10:32;99854.94;;;21.32;55.08
48926;BME280;39838;59.938;30.642;2023-07-31T04:13:00;99853.66;;;21.39;55.36
48926;BME280;39838;59.938;30.642;2023-07-31T04:15:27;99847.63;;;21.52;55.15
48926;BME280;39838;59.938;30.642;2023-07-31T04:17:54;99850.44;;;21.65;55.56
48926;BME280;39838;59.938;30.642;2023-07-31T04:20:23;99845.00;;;21.68;55.35
48926;BME280;39838;59.938;30.642;2023-07-31T04:22:50;99853.16;;;21.79;55.36
48926;BME280;39838;59.938;30.642;2023-07-31T04:25:18;99852.06;;;21.84;54.59
48926;BME280;39838;59.938;30.642;2023-07-31T04:27:47;99855.31;;;21.89;54.15
48926;BME280;39838;59.938;30.642;2023-07-31T04:30:14;99855.19;;;21.90;54.03
48926;BME280;39838;59.938;30.642;2023-07-31T04:32:41;99851.38;;;21.96;53.83
48926;BME280;39838;59.938;30.642;2023-07-31T04:35:08;99850.22;;;22.00;53.85
48926;BME280;39838;59.938;30.642;2023-07-31T04:37:37;99844.59;;;22.06;53.56
48926;BME280;39838;59.938;30.642;2023-07-31T04:40:05;99844.28;;;22.12;53.60
48926;BME280;39838;59.938;30.642;2023-07-31T04:42:33;99843.72;;;22.21;53.10
48926;BME280;39838;59.938;30.642;2023-07-31T04:45:00;99842.41;;;22.28;53.21
48926;BME280;39838;59.938;30.642;2023-07-31T04:47:30;99836.59;;;22.38;53.31
48926;BME280;39838;59.938;30.642;2023-07-31T04:49:57;99839.44;;;22.49;52.53
48926;BME280;39838;59.938;30.642;2023-07-31T04:52:24;99838.06;;;22.57;52.58
48926;BME280;39838;59.938;30.642;2023-07-31T04:54:52;99838.44;;;22.66;51.83
48926;BME280;39838;59.938;30.642;2023-07-31T04:57:20;99832.41;;;22.78;51.60
48926;BME280;39838;59.938;30.642;2023-07-31T04:59:47;99832.56;;;22.91;51.63
48926;BME280;39838;59.938;30.642;2023-07-31T05:02:14;99831.78;;;23.03;51.01
48926;BME280;39838;59.938;30.642;2023-07-31T05:04:41;99831.97;;;23.14;50.99
48926;BME280;39838;59.938;30.642;2023-07-31T05:07:08;99833.19;;;23.23;50.37
48926;BME280;39838;59.938;30.642;2023-07-31T05:09:36;99833.84;;;23.26;50.37
48926;BME280;39838;59.938;30.642;2023-07-31T05:12:07;99834.69;;;23.27;50.21
48926;BME280;39838;59.938;30.642;2023-07-31T05:14:34;99829.13;;;23.31;50.17
48926;BME280;39838;59.938;30.642;2023-07-31T05:17:01;99838.28;;;23.40;49.87
48926;BME280;39838;59.938;30.642;2023-07-31T05:19:28;99832.69;;;23.45;49.27
48926;BME280;39838;59.938;30.642;2023-07-31T05:21:55;99826.34;;;23.47;49.24
48926;BME280;39838;59.938;30.642;2023-07-31T05:24:23;99833.06;;;23.53;49.15
48926;BME280;39838;59.938;30.642;2023-07-31T05:26:50;99830.13;;;23.57;49.10
48926;BME280;39838;59.938;30.642;2023-07-31T05:29:18;99837.00;;;23.60;48.21
48926;BME280;39838;59.938;30.642;2023-07-31T05:31:46;99829.72;;;23.63;48.06
48926;BME280;39838;59.938;30.642;2023-07-31T05:34:13;99831.34;;;23.66;48.36
48926;BME280;39838;59.938;30.642;2023-07-31T05:36:41;99823.28;;;23.67;48.41
48926;BME280;39838;59.938;30.642;2023-07-31T05:39:08;99826.28;;;23.76;48.46
48926;BME280;39838;59.938;30.642;2023-07-31T05:41:35;99832.25;;;23.79;48.12
48926;BME280;39838;59.938;30.642;2023-07-31T05:44:03;99824.81;;;23.84;47.91
48926;BME280;39838;59.938;30.642;2023-07-31T05:46:32;99828.03;;;23.89;47.83
48926;BME280;39838;59.938;30.642;2023-07-31T05:48:59;99829.31;;;23.96;47.56
48926;BME280;39838;59.938;30.642;2023-07-31T05:51:26;99834.91;;;24.06;47.49
48926;BME280;39838;59.938;30.642;2023-07-31T05:53:54;99831.91;;;24.11;47.91
48926;BME280;39838;59.938;30.642;2023-07-31T05:56:21;99836.91;;;24.15;47.55
48926;BME280;39838;59.938;30.642;2023-07-31T05:58:48;99831.94;;;24.23;47.45
48926;BME280;39838;59.938;30.642;2023-07-31T06:01:16;99828.03;;;24.29;47.65
48926;BME280;39838;59.938;30.642;2023-07-31T06:03:45;99821.28;;;24.38;47.31
48926;BME280;39838;59.938;30.642;2023-07-31T06:06:12;99827.88;;;24.45;47.91
48926;BME280;39838;59.938;30.642;2023-07-31T06:08:40;99834.38;;;24.54;47.46
48926;BME280;39838;59.938;30.642;2023-07-31T06:11:07;99828.09;;;24.55;47.35
48926;BME280;39838;59.938;30.642;2023-07-31T06:13:35;99825.75;;;24.50;46.98
48926;BME280;39838;59.938;30.642;2023-07-31T06:16:02;99832.25;;;24.46;47.06
48926;BME280;39838;59.938;30.642;2023-07-31T06:18:31;99825.31;;;24.43;46.49
48926;BME280;39838;59.938;30.642;2023-07-31T06:20:59;99825.88;;;24.48;46.87
48926;BME280;39838;59.938;30.642;2023-07-31T06:23:27;99819.06;;;24.57;46.75
48926;BME280;39838;59.938;30.642;2023-07-31T06:25:54;99829.16;;;24.65;46.46
48926;BME280;39838;59.938;30.642;2023-07-31T06:28:21;99821.72;;;24.70;46.76
48926;BME280;39838;59.938;30.642;2023-07-31T06:30:48;99827.16;;;24.81;45.88
48926;BME280;39838;59.938;30.642;2023-07-31T06:33:15;99825.34;;;24.82;44.66
48926;BME280;39838;59.938;30.642;2023-07-31T06:35:42;99823.44;;;24.71;45.05
48926;BME280;39838;59.938;30.642;2023-07-31T06:38:11;99822.38;;;24.73;44.87
48926;BME280;39838;59.938;30.642;2023-07-31T06:40:38;99827.34;;;24.78;44.23
48926;BME280;39838;59.938;30.642;2023-07-31T06:43:05;99831.22;;;24.87;44.71
48926;BME280;39838;59.938;30.642;2023-07-31T06:45:34;99827.34;;;24.91;44.62
48926;BME280;39838;59.938;30.642;2023-07-31T06:48:01;99835.00;;;24.95;43.58
48926;BME280;39838;59.938;30.642;2023-07-31T06:50:29;99822.56;;;24.96;44.10
48926;BME280;39838;59.938;30.642;2023-07-31T06:52:57;99827.47;;;25.02;44.25
48926;BME280;39838;59.938;30.642;2023-07-31T06:55:26;99835.78;;;25.10;44.47
48926;BME280;39838;59.938;30.642;2023-07-31T06:57:54;99815.78;;;25.17;44.64
48926;BME280;39838;59.938;30.642;2023-07-31T07:00:22;99827.63;;;25.37;44.18
48926;BME280;39838;59.938;30.642;2023-07-31T07:02:50;99824.09;;;25.49;44.43
48926;BME280;39838;59.938;30.642;2023-07-31T07:05:18;99831.41;;;25.58;44.19
48926;BME280;39838;59.938;30.642;2023-07-31T07:07:45;99824.63;;;25.54;43.58
48926;BME280;39838;59.938;30.642;2023-07-31T07:10:12;99823.88;;;25.52;43.55
48926;BME280;39838;59.938;30.642;2023-07-31T07:12:41;99830.44;;;25.59;42.86
48926;BME280;39838;59.938;30.642;2023-07-31T07:15:09;99829.88;;;25.67;41.57
48926;BME280;39838;59.938;30.642;2023-07-31T07:17:36;99826.72;;;25.62;42.02
48926;BME280;39838;59.938;30.642;2023-07-31T07:20:04;99832.38;;;25.57;41.59
48926;BME280;39838;59.938;30.642;2023-07-31T07:22:31;99828.22;;;25.53;41.28
48926;BME280;39838;59.938;30.642;2023-07-31T07:24:58;99833.09;;;25.59;41.63
48926;BME280;39838;59.938;30.642;2023-07-31T07:27:26;99837.25;;;25.64;41.27
48926;BME280;39838;59.938;30.642;2023-07-31T07:29:54;99827.56;;;25.63;41.83
48926;BME280;39838;59.938;30.642;2023-07-31T07:32:22;99824.66;;;25.66;41.92
48926;BME280;39838;59.938;30.642;2023-07-31T07:34:49;99824.97;;;25.74;41.63
48926;BME280;39838;59.938;30.642;2023-07-31T07:37:16;99826.13;;;25.82;41.46
48926;BME280;39838;59.938;30.642;2023-07-31T07:39:44;99834.16;;;25.94;41.47
48926;BME280;39838;59.938;30.642;2023-07-31T07:42:11;99822.00;;;26.02;41.30
48926;BME280;39838;59.938;30.642;2023-07-31T07:44:38;99821.06;;;26.14;41.56
48926;BME280;39838;59.938;30.642;2023-07-31T07:47:07;99815.91;;;26.00;41.64
48926;BME280;39838;59.938;30.642;2023-07-31T07:49:35;99820.41;;;26.00;41.72
48926;BME280;39838;59.938;30.642;2023-07-31T07:52:02;99826.94;;;26.07;41.97
48926;BME280;39838;59.938;30.642;2023-07-31T07:54:30;99823.63;;;26.16;41.72
48926;BME280;39838;59.938;30.642;2023-07-31T07:56:57;99827.91;;;26.30;41.81
48926;BME280;39838;59.938;30.642;2023-07-31T07:59:25;99824.09;;;26.45;41.67
48926;BME280;39838;59.938;30.642;2023-07-31T08:01:52;99823.38;;;26.54;41.37
48926;BME280;39838;59.938;30.642;2023-07-31T08:04:21;99835.41;;;26.71;41.48
48926;BME280;39838;59.938;30.642;2023-07-31T08:06:48;99831.66;;;26.85;41.38
48926;BME280;39838;59.938;30.642;2023-07-31T08:09:15;99832.03;;;26.91;41.28
48926;BME280;39838;59.938;30.642;2023-07-31T08:11:43;99830.94;;;26.94;40.97
48926;BME280;39838;59.938;30.642;2023-07-31T08:14:10;99834.09;;;26.99;40.26
48926;BME280;39838;59.938;30.642;2023-07-31T08:16:37;99826.22;;;26.98;40.32
48926;BME280;39838;59.938;30.642;2023-07-31T08:19:04;99830.69;;;26.86;40.89
48926;BME280;39838;59.938;30.642;2023-07-31T08:21:33;99834.19;;;26.75;40.93
48926;BME280;39838;59.938;30.642;2023-07-31T08:24:00;99831.78;;;26.72;40.94
48926;BME280;39838;59.938;30.642;2023-07-31T08:26:27;99836.84;;;26.64;41.08
48926;BME280;39838;59.938;30.642;2023-07-31T08:28:54;99832.00;;;26.58;40.98
48926;BME280;39838;59.938;30.642;2023-07-31T08:31:21;99837.66;;;26.53;41.80
48926;BME280;39838;59.938;30.642;2023-07-31T08:33:49;99835.97;;;26.52;42.17
48926;BME280;39838;59.938;30.642;2023-07-31T08:36:16;99839.59;;;26.51;42.23
48926;BME280;39838;59.938;30.642;2023-07-31T08:38:45;99830.41;;;26.55;42.21
48926;BME280;39838;59.938;30.642;2023-07-31T08:41:12;99831.44;;;26.77;42.45
48926;BME280;39838;59.938;30.642;2023-07-31T08:43:39;99841.84;;;27.02;41.65
48926;BME280;39838;59.938;30.642;2023-07-31T08:46:07;99832.41;;;27.09;41.44
48926;BME280;39838;59.938;30.642;2023-07-31T08:48:35;99838.72;;;27.08;40.81
48926;BME280;39838;59.938;30.642;2023-07-31T08:51:04;99830.22;;;27.03;41.27
48926;BME280;39838;59.938;30.642;2023-07-31T08:53:31;99839.41;;;26.88;40.55
48926;BME280;39838;59.938;30.642;2023-07-31T08:56:00;99838.69;;;26.86;40.78
48926;BME280;39838;59.938;30.642;2023-07-31T08:58:31;99840.16;;;26.90;41.22
48926;BME280;39838;59.938;30.642;2023-07-31T09:01:01;99819.19;;;26.85;40.88
48926;BME280;39838;59.938;30.642;2023-07-31T09:03:29;99841.41;;;27.19;40.10
48926;BME280;39838;59.938;30.642;2023-07-31T09:05:58;99836.53;;;27.36;39.07
48926;BME280;39838;59.938;30.642;2023-07-31T09:08:27;99836.28;;;27.39;38.70
48926;BME280;39838;59.938;30.642;2023-07-31T09:11:01;99841.03;;;27.24;38.48
48926;BME280;39838;59.938;30.642;2023-07-31T09:13:29;99841.16;;;27.11;39.17
48926;BME280;39838;59.938;30.642;2023-07-31T09:15:56;99852.50;;;27.02;39.47
48926;BME280;39838;59.938;30.642;2023-07-31T09:18:24;99843.53;;;26.92;40.11
48926;BME280;39838;59.938;30.642;2023-07-31T09:21:01;99843.28;;;26.73;39.77
48926;BME280;39838;59.938;30.642;2023-07-31T09:23:40;99844.75;;;26.77;40.44
48926;BME280;39838;59.938;30.642;2023-07-31T09:26:09;99842.22;;;26.98;40.16
48926;BME280;39838;59.938;30.642;2023-07-31T09:28:36;99843.94;;;27.21;39.90
48926;BME280;39838;59.938;30.642;2023-07-31T09:31:04;99847.31;;;27.45;40.02
48926;BME280;39838;59.938;30.642;2023-07-31T09:33:31;99849.22;;;27.55;39.22
48926;BME280;39838;59.938;30.642;2023-07-31T09:35:58;99842.47;;;27.51;39.05
48926;BME280;39838;59.938;30.642;2023-07-31T09:38:26;99834.56;;;27.49;39.74
48926;BME280;39838;59.938;30.642;2023-07-31T09:40:53;99840.84;;;27.70;40.17
48926;BME280;39838;59.938;30.642;2023-07-31T09:43:22;99837.72;;;27.97;38.97
48926;BME280;39838;59.938;30.642;2023-07-31T09:45:55;99845.56;;;28.10;38.84
48926;BME280;39838;59.938;30.642;2023-07-31T09:48:24;99842.16;;;28.19;38.79
48926;BME280;39838;59.938;30.642;2023-07-31T09:50:53;99836.53;;;28.22;38.49
48926;BME280;39838;59.938;30.642;2023-07-31T09:53:28;99839.16;;;28.13;38.59
48926;BME280;39838;59.938;30.642;2023-07-31T09:55:58;99827.97;;;28.19;38.51
48926;BME280;39838;59.938;30.642;2023-07-31T09:58:28;99835.31;;;28.26;38.01
48926;BME280;39838;59.938;30.642;2023-07-31T10:00:57;99827.31;;;28.26;37.77
48926;BME280;39838;59.938;30.642;2023-07-31T10:03:26;99827.56;;;28.23;38.29
48926;BME280;39838;59.938;30.642;2023-07-31T10:05:55;99826.88;;;28.10;38.53
48926;BME280;39838;59.938;30.642;2023-07-31T10:08:26;99828.84;;;28.08;38.42
48926;BME280;39838;59.938;30.642;2023-07-31T10:10:58;99829.13;;;28.05;38.16
48926;BME280;39838;59.938;30.642;2023-07-31T10:13:27;99832.41;;;27.97;38.25
48926;BME280;39838;59.938;30.642;2023-07-31T10:15:58;99841.81;;;28.13;38.20
48926;BME280;39838;59.938;30.642;2023-07-31T10:18:26;99832.28;;;28.31;37.97
48926;BME280;39838;59.938;30.642;2023-07-31T10:20:55;99828.78;;;28.72;37.04
48926;BME280;39838;59.938;30.642;2023-07-31T10:23:23;99834.06;;;29.14;36.67
48926;BME280;39838;59.938;30.642;2023-07-31T10:25:53;99831.28;;;29.25;36.05
48926;BME280;39838;59.938;30.642;2023-07-31T10:28:20;99832.53;;;29.21;35.79
48926;BME280;39838;59.938;30.642;2023-07-31T10:30:49;99831.56;;;29.22;35.73
48926;BME280;39838;59.938;30.642;2023-07-31T10:33:18;99830.16;;;29.28;35.22
48926;BME280;39838;59.938;30.642;2023-07-31T10:35:47;99822.38;;;29.15;35.40
48926;BME280;39838;59.938;30.642;2023-07-31T10:38:14;99820.91;;;29.01;34.71
48926;BME280;39838;59.938;30.642;2023-07-31T10:40:42;99810.91;;;28.94;35.10
48926;BME280;39838;59.938;30.642;2023-07-31T10:43:24;99816.59;;;28.89;35.27
48926;BME280;39838;59.938;30.642;2023-07-31T10:45:54;99821.31;;;28.76;35.11
48926;BME280;39838;59.938;30.642;2023-07-31T10:48:21;99800.59;;;28.68;35.22
48926;BME280;39838;59.938;30.642;2023-07-31T10:50:50;99813.25;;;28.66;34.78
48926;BME280;39838;59.938;30.642;2023-07-31T10:53:24;99808.97;;;28.54;35.07
48926;BME280;39838;59.938;30.642;2023-07-31T10:55:52;99808.19;;;28.42;34.87
48926;BME280;39838;59.938;30.642;2023-07-31T10:58:20;99803.13;;;28.28;35.39
48926;BME280;39838;59.938;30.642;2023-07-31T11:00:47;99805.84;;;28.17;36.47
48926;BME280;39838;59.938;30.642;2023-07-31T11:03:17;99813.75;;;28.18;36.66
48926;BME280;39838;59.938;30.642;2023-07-31T11:05:50;99812.50;;;28.34;35.90
48926;BME280;39838;59.938;30.642;2023-07-31T11:08:21;99789.16;;;28.36;36.25
48926;BME280;39838;59.938;30.642;2023-07-31T11:10:50;99797.81;;;28.49;36.59
48926;BME280;39838;59.938;30.642;2023-07-31T11:13:18;99806.69;;;28.49;36.37
48926;BME280;39838;59.938;30.642;2023-07-31T11:15:45;99803.34;;;28.57;36.02
48926;BME280;39838;59.938;30.642;2023-07-31T11:18:12;99803.09;;;28.60;35.96
48926;BME280;39838;59.938;30.642;2023-07-31T11:20:42;99806.47;;;28.62;35.85
48926;BME280;39838;59.938;30.642;2023-07-31T11:23:10;99796.31;;;28.56;36.19
48926;BME280;39838;59.938;30.642;2023-07-31T11:25:39;99794.66;;;28.65;35.89
48926;BME280;39838;59.938;30.642;2023-07-31T11:28:09;99795.91;;;28.81;35.50
48926;BME280;39838;59.938;30.642;2023-07-31T11:30:37;99796.19;;;28.88;35.56
48926;BME280;39838;59.938;30.642;2023-07-31T11:33:05;99788.56;;;28.83;35.13
48926;BME280;39838;59.938;30.642;2023-07-31T11:35:34;99789.56;;;28.82;34.71
48926;BME280;39838;59.938;30.642;2023-07-31T11:38:03;99782.69;;;28.90;34.08
48926;BME280;39838;59.938;30.642;2023-07-31T11:40:30;99786.84;;;28.94;34.51
48926;BME280;39838;59.938;30.642;2023-07-31T11:42:58;99788.53;;;28.95;34.81
48926;BME280;39838;59.938;30.642;2023-07-31T11:45:31;99779.72;;;28.83;35.17
48926;BME280;39838;59.938;30.642;2023-07-31T11:47:58;99778.59;;;28.55;34.95
48926;BME280;39838;59.938;30.642;2023-07-31T11:50:26;99781.34;;;28.44;35.24
48926;BME280;39838;59.938;30.642;2023-07-31T11:52:56;99773.13;;;28.36;35.35
48926;BME280;39838;59.938;30.642;2023-07-31T11:55:25;99778.25;;;28.27;35.05
48926;BME280;39838;59.938;30.642;2023-07-31T11:57:54;99783.97;;;28.34;35.34
48926;BME280;39838;59.938;30.642;2023-07-31T12:00:23;99772.78;;;28.50;34.85
48926;BME280;39838;59.938;30.642;2023-07-31T12:02:50;99776.28;;;28.41;34.86
48926;BME280;39838;59.938;30.642;2023-07-31T12:05:18;99776.00;;;28.44;34.96
48926;BME280;39838;59.938;30.642;2023-07-31T12:07:50;99771.25;;;28.47;34.00
48926;BME280;39838;59.938;30.642;2023-07-31T12:10:28;99772.41;;;28.54;34.56
48926;BME280;39838;59.938;30.642;2023-07-31T12:13:03;99776.69;;;28.67;34.46
48926;BME280;39838;59.938;30.642;2023-07-31T12:15:35;99747.16;;;28.68;34.52
48926;BME280;39838;59.938;30.642;2023-07-31T12:18:08;99757.63;;;28.81;34.41
48926;BME280;39838;59.938;30.642;2023-07-31T12:20:35;99769.47;;;28.88;34.37
48926;BME280;39838;59.938;30.642;2023-07-31T12:23:02;99759.28;;;29.03;35.10
48926;BME280;39838;59.938;30.642;2023-07-31T12:25:32;99764.94;;;29.09;34.56
48926;BME280;39838;59.938;30.642;2023-07-31T12:28:05;99759.56;;;29.00;34.09
48926;BME280;39838;59.938;30.642;2023-07-31T12:30:38;99764.84;;;29.21;33.97
48926;BME280;39838;59.938;30.642;2023-07-31T12:33:06;99755.78;;;29.81;34.13
48926;BME280;39838;59.938;30.642;2023-07-31T12:35:38;99762.38;;;30.35;32.69
48926;BME280;39838;59.938;30.642;2023-07-31T12:38:07;99758.25;;;30.88;32.07
48926;BME280;39838;59.938;30.642;2023-07-31T12:40:37;99760.41;;;31.12;32.13
48926;BME280;39838;59.938;30.642;2023-07-31T12:43:04;99753.53;;;31.37;31.98
48926;BME280;39838;59.938;30.642;2023-07-31T12:45:32;99743.25;;;31.68;31.93
48926;BME280;39838;59.938;30.642;2023-07-31T12:47:59;99748.16;;;31.90;31.50
48926;BME280;39838;59.938;30.642;2023-07-31T12:50:26;99749.47;;;32.48;30.93
48926;BME280;39838;59.938;30.642;2023-07-31T12:52:54;99743.66;;;32.86;30.25
48926;BME280;39838;59.938;30.642;2023-07-31T12:55:21;99741.75;;;32.79;29.63